createdAt,value
2017-03-16T00:00:23.846Z,83.55
2017-03-16T00:01:18.863Z,83.58
2017-03-16T00:02:19.878Z,83.66
2017-03-16T00:03:19.906Z,83.64
2017-03-16T00:04:19.935Z,83.69
2017-03-16T00:05:14.958Z,83.70
2017-03-16T00:06:08.998Z,83.71
2017-03-16T00:07:10.000Z,83.79
2017-03-16T00:08:10.039Z,83.80
2017-03-16T00:08:59.072Z,83.84
2017-03-16T00:09:54.106Z,83.90
2017-03-16T00:10:49.148Z,84.01
2017-03-16T00:11:43.121Z,84.09
2017-03-16T00:12:38.252Z,84.12
2017-03-16T00:13:44.212Z,84.13
2017-03-16T00:14:44.287Z,84.12
2017-03-16T00:15:38.303Z,84.12
2017-03-16T00:16:39.355Z,84.14
2017-03-16T00:17:39.302Z,84.16
2017-03-16T00:18:34.354Z,84.24
2017-03-16T00:19:34.493Z,84.33
2017-03-16T00:20:28.388Z,84.43
2017-03-16T00:21:28.389Z,84.41
2017-03-16T00:22:23.399Z,84.46
2017-03-16T00:23:18.487Z,84.48
2017-03-16T00:24:18.511Z,84.55
2017-03-16T00:25:13.564Z,84.57
2017-03-16T00:26:08.496Z,84.61
2017-03-16T00:27:09.529Z,84.66
2017-03-16T00:28:09.602Z,84.72
2017-03-16T00:29:09.564Z,84.70
2017-03-16T00:30:04.696Z,84.71
2017-03-16T00:30:58.719Z,84.72
2017-03-16T00:31:59.693Z,84.70
2017-03-16T00:32:59.801Z,84.77
2017-03-16T00:33:59.783Z,84.80
2017-03-16T00:34:54.737Z,84.89
2017-03-16T00:35:48.851Z,84.93
2017-03-16T00:36:48.869Z,85.01
2017-03-16T00:37:43.877Z,85.06
2017-03-16T00:38:38.900Z,85.15
2017-03-16T00:39:39.899Z,85.17
2017-03-16T00:40:39.963Z,85.23
2017-03-16T00:41:39.984Z,85.26
2017-03-16T00:42:35.026Z,85.26
2017-03-16T00:43:34.988Z,85.28
2017-03-16T00:44:35.061Z,85.28
2017-03-16T00:45:29.123Z,85.27
2017-03-16T00:46:29.103Z,85.28
2017-03-16T00:47:24.187Z,85.28
2017-03-16T00:48:30.265Z,85.32
2017-03-16T00:49:25.225Z,85.28
2017-03-16T00:50:19.226Z,85.26
2017-03-16T00:51:19.264Z,85.26
2017-03-16T00:52:19.288Z,85.32
2017-03-16T00:53:14.290Z,85.38
2017-03-16T00:54:08.377Z,85.46
2017-03-16T00:55:08.384Z,85.62
2017-03-16T00:56:03.382Z,85.74
2017-03-16T00:57:03.394Z,85.84
2017-03-16T00:58:03.454Z,85.96
2017-03-16T00:59:09.477Z,86.04
2017-03-16T01:00:04.486Z,86.08
2017-03-16T01:01:04.517Z,86.13
2017-03-16T01:01:59.532Z,86.18
2017-03-16T01:02:59.551Z,86.23
2017-03-16T01:03:59.566Z,86.26
2017-03-16T01:04:59.626Z,86.26
2017-03-16T01:05:53.585Z,86.27
2017-03-16T01:06:54.669Z,86.28
2017-03-16T01:07:55.686Z,86.27
2017-03-16T01:08:50.704Z,86.25
2017-03-16T01:09:44.807Z,86.24
2017-03-16T01:10:44.803Z,86.24
2017-03-16T01:11:39.814Z,86.29
2017-03-16T01:12:45.806Z,86.25
2017-03-16T01:13:40.886Z,86.24
2017-03-16T01:14:34.879Z,86.24
2017-03-16T01:15:35.892Z,86.19
2017-03-16T01:16:35.945Z,86.19
2017-03-16T01:17:36.929Z,86.18
2017-03-16T01:18:30.944Z,86.18
2017-03-16T01:19:31.949Z,86.18
2017-03-16T01:20:32.020Z,86.15
2017-03-16T01:21:27.161Z,86.14
2017-03-16T01:22:27.072Z,86.13
2017-03-16T01:23:21.140Z,86.19
2017-03-16T01:24:21.157Z,86.22
2017-03-16T01:25:16.120Z,86.25
2017-03-16T01:26:11.172Z,86.24
2017-03-16T01:27:11.191Z,86.27
2017-03-16T01:28:06.265Z,86.28
2017-03-16T01:29:01.228Z,86.34
2017-03-16T01:30:02.310Z,86.33
2017-03-16T01:31:03.292Z,86.43
2017-03-16T01:31:58.357Z,86.50
2017-03-16T01:32:52.386Z,86.61
2017-03-16T01:33:52.368Z,86.67
2017-03-16T01:34:52.412Z,86.74
2017-03-16T01:35:47.423Z,86.80
2017-03-16T01:36:41.501Z,86.84
2017-03-16T01:37:41.503Z,86.88
2017-03-16T01:38:36.562Z,86.91
2017-03-16T01:39:31.507Z,86.99
2017-03-16T01:40:32.612Z,87.05
2017-03-16T01:41:32.596Z,87.12
2017-03-16T01:42:32.642Z,87.16
2017-03-16T01:43:27.646Z,87.25
2017-03-16T01:44:21.675Z,87.28
2017-03-16T01:45:22.749Z,87.35
2017-03-16T01:46:22.730Z,87.41
2017-03-16T01:47:22.769Z,87.52
2017-03-16T01:48:17.798Z,87.56
2017-03-16T01:49:11.853Z,87.61
2017-03-16T01:50:11.837Z,87.66
2017-03-16T01:51:06.897Z,87.66
2017-03-16T01:52:01.937Z,87.65
2017-03-16T01:53:02.917Z,87.68
2017-03-16T01:54:02.970Z,87.69
2017-03-16T01:55:02.972Z,87.73
2017-03-16T01:55:58.004Z,87.75
2017-03-16T01:56:52.098Z,87.79
2017-03-16T01:57:53.092Z,87.83
2017-03-16T01:58:53.111Z,87.89
2017-03-16T01:59:53.110Z,87.90
2017-03-16T02:00:48.164Z,87.90
2017-03-16T02:01:42.188Z,87.90
2017-03-16T02:02:42.208Z,87.96
2017-03-16T02:03:37.203Z,87.99
2017-03-16T02:04:32.255Z,88.06
2017-03-16T02:05:33.218Z,88.10
2017-03-16T02:06:33.281Z,88.11
2017-03-16T02:07:33.275Z,88.23
2017-03-16T02:08:28.369Z,88.31
2017-03-16T02:09:22.374Z,88.37
2017-03-16T02:10:22.442Z,88.44
2017-03-16T02:11:17.418Z,88.47
2017-03-16T02:12:17.430Z,88.53
2017-03-16T02:13:11.479Z,88.55
2017-03-16T02:14:11.521Z,88.60
2017-03-16T02:15:06.529Z,88.64
2017-03-16T02:16:01.575Z,88.64
2017-03-16T02:17:01.597Z,88.66
2017-03-16T02:17:56.626Z,88.67
2017-03-16T02:18:51.703Z,88.66
2017-03-16T02:19:52.778Z,88.72
2017-03-16T02:20:52.663Z,88.75
2017-03-16T02:21:52.695Z,88.74
2017-03-16T02:22:47.762Z,88.77
2017-03-16T02:23:41.767Z,88.83
2017-03-16T02:24:41.836Z,88.88
2017-03-16T02:25:36.871Z,88.93
2017-03-16T02:26:36.838Z,89.00
2017-03-16T02:27:30.863Z,89.03
2017-03-16T02:28:30.931Z,89.07
2017-03-16T02:29:25.940Z,89.04
2017-03-16T02:30:25.973Z,89.04
2017-03-16T02:31:26.016Z,89.06
2017-03-16T02:32:25.994Z,89.12
2017-03-16T02:33:20.078Z,89.17
2017-03-16T02:34:20.105Z,89.21
2017-03-16T02:35:15.109Z,89.22
2017-03-16T02:36:10.097Z,89.27
2017-03-16T02:37:10.183Z,89.30
2017-03-16T02:38:05.199Z,89.32
2017-03-16T02:39:00.197Z,89.32
2017-03-16T02:40:01.196Z,89.31
2017-03-16T02:41:02.278Z,89.33
2017-03-16T02:41:57.322Z,89.35
2017-03-16T02:42:51.313Z,89.39
2017-03-16T02:43:51.306Z,89.39
2017-03-16T02:44:51.361Z,89.44
2017-03-16T02:45:46.356Z,89.44
2017-03-16T02:46:40.392Z,89.48
2017-03-16T02:47:40.428Z,89.53
2017-03-16T02:48:35.437Z,89.53
2017-03-16T02:49:30.498Z,89.53
2017-03-16T02:50:31.458Z,89.56
2017-03-16T02:51:31.544Z,89.57
2017-03-16T02:52:31.564Z,89.58
2017-03-16T02:53:26.572Z,89.62
2017-03-16T02:54:20.646Z,89.59
2017-03-16T02:55:20.658Z,89.61
2017-03-16T02:56:15.661Z,89.61
2017-03-16T02:57:15.674Z,89.63
2017-03-16T02:58:10.104Z,89.66
2017-03-16T02:59:09.702Z,89.66
2017-03-16T03:00:04.754Z,89.65
2017-03-16T03:00:59.777Z,89.63
2017-03-16T03:02:00.834Z,89.67
2017-03-16T03:03:01.856Z,89.67
2017-03-16T03:04:02.906Z,89.70
2017-03-16T03:05:02.889Z,89.72
2017-03-16T03:06:04.031Z,89.71
2017-03-16T03:06:57.995Z,89.74
2017-03-16T03:07:58.022Z,89.79
2017-03-16T03:08:52.996Z,89.79
2017-03-16T03:09:48.032Z,89.79
2017-03-16T03:10:48.082Z,89.81
2017-03-16T03:11:43.099Z,89.84
2017-03-16T03:12:38.077Z,89.87
2017-03-16T03:13:39.484Z,89.89
2017-03-16T03:14:39.442Z,89.90
2017-03-16T03:15:34.180Z,89.87
2017-03-16T03:16:40.153Z,89.88
2017-03-16T03:17:35.233Z,89.84
2017-03-16T03:18:29.289Z,89.87
2017-03-16T03:19:29.259Z,89.91
2017-03-16T03:20:29.310Z,89.97
2017-03-16T03:21:24.338Z,90.02
2017-03-16T03:22:18.373Z,90.07
2017-03-16T03:23:18.387Z,90.08
2017-03-16T03:24:13.399Z,90.12
2017-03-16T03:25:13.472Z,90.17
2017-03-16T03:26:07.476Z,90.16
2017-03-16T03:27:07.500Z,90.16
2017-03-16T03:28:02.502Z,90.18
2017-03-16T03:29:02.590Z,90.19
2017-03-16T03:30:02.614Z,90.18
2017-03-16T03:31:02.595Z,90.22
2017-03-16T03:32:02.601Z,90.22
2017-03-16T03:33:02.656Z,90.26
2017-03-16T03:33:56.993Z,90.29
2017-03-16T03:34:56.693Z,90.32
2017-03-16T03:35:51.683Z,90.31
2017-03-16T03:36:51.740Z,90.31
2017-03-16T03:37:45.772Z,90.31
2017-03-16T03:38:45.784Z,90.35
2017-03-16T03:39:40.842Z,90.37
2017-03-16T03:40:35.891Z,90.40
2017-03-16T03:41:35.890Z,90.39
2017-03-16T03:42:30.857Z,90.41
2017-03-16T03:43:25.976Z,90.43
2017-03-16T03:44:27.206Z,90.46
2017-03-16T03:45:26.970Z,90.49
2017-03-16T03:46:27.439Z,90.49
2017-03-16T03:47:22.042Z,90.52
2017-03-16T03:48:16.021Z,90.54
2017-03-16T03:49:16.039Z,90.54
2017-03-16T03:50:11.087Z,90.53
2017-03-16T03:51:11.160Z,90.52
2017-03-16T03:52:05.201Z,90.49
2017-03-16T03:53:06.178Z,90.50
2017-03-16T03:54:07.180Z,90.49
2017-03-16T03:55:02.238Z,90.50
2017-03-16T03:55:56.264Z,90.51
2017-03-16T03:56:56.289Z,90.52
2017-03-16T03:57:56.351Z,90.56
2017-03-16T03:58:56.324Z,90.61
2017-03-16T03:59:56.361Z,90.61
2017-03-16T04:00:51.377Z,90.63
2017-03-16T04:01:45.373Z,90.61
2017-03-16T04:02:45.397Z,90.67
2017-03-16T04:03:40.806Z,90.66
2017-03-16T04:04:35.510Z,90.67
2017-03-16T04:05:35.485Z,90.67
2017-03-16T04:06:35.561Z,90.67
2017-03-16T04:07:35.576Z,90.67
2017-03-16T04:08:30.969Z,90.64
2017-03-16T04:09:30.610Z,90.63
2017-03-16T04:10:24.668Z,90.67
2017-03-16T04:11:24.683Z,90.66
2017-03-16T04:12:19.705Z,90.64
2017-03-16T04:13:14.779Z,90.69
2017-03-16T04:14:14.806Z,90.69
2017-03-16T04:15:10.084Z,90.74
2017-03-16T04:16:04.794Z,90.75
2017-03-16T04:17:05.862Z,90.78
2017-03-16T04:18:05.904Z,90.80
2017-03-16T04:19:05.885Z,90.81
2017-03-16T04:20:00.887Z,90.84
2017-03-16T04:20:55.246Z,90.81
2017-03-16T04:21:54.963Z,90.83
2017-03-16T04:22:49.962Z,90.84
2017-03-16T04:23:49.997Z,90.84
2017-03-16T04:24:44.091Z,90.89
2017-03-16T04:25:44.076Z,90.90
2017-03-16T04:26:39.085Z,90.92
2017-03-16T04:27:34.471Z,90.90
2017-03-16T04:28:34.480Z,90.95
2017-03-16T04:29:29.168Z,90.95
2017-03-16T04:30:24.207Z,90.97
2017-03-16T04:31:25.236Z,90.97
2017-03-16T04:32:25.262Z,90.99
2017-03-16T04:33:25.247Z,90.99
2017-03-16T04:34:25.286Z,91.03
2017-03-16T04:35:26.352Z,91.04
2017-03-16T04:36:27.351Z,91.04
2017-03-16T04:37:21.326Z,91.04
2017-03-16T04:38:21.390Z,91.03
2017-03-16T04:39:16.386Z,91.03
2017-03-16T04:40:11.439Z,91.07
2017-03-16T04:41:11.471Z,91.06
2017-03-16T04:42:06.475Z,91.04
2017-03-16T04:43:01.541Z,91.06
2017-03-16T04:44:01.563Z,91.05
2017-03-16T04:44:56.586Z,91.06
2017-03-16T04:45:51.656Z,91.06
2017-03-16T04:46:52.618Z,91.08
2017-03-16T04:47:52.671Z,91.09
2017-03-16T04:48:52.649Z,91.08
2017-03-16T04:49:47.696Z,91.08
2017-03-16T04:50:41.709Z,91.09
2017-03-16T04:51:41.766Z,91.12
2017-03-16T04:52:36.818Z,91.12
2017-03-16T04:53:37.189Z,91.14
2017-03-16T04:54:30.858Z,91.11
2017-03-16T04:55:30.903Z,91.13
2017-03-16T04:56:25.896Z,91.12
2017-03-16T04:57:20.842Z,91.12
2017-03-16T04:58:20.921Z,91.14
2017-03-16T04:59:15.994Z,91.11
2017-03-16T05:00:10.970Z,91.10
2017-03-16T05:01:12.295Z,91.15
2017-03-16T05:02:13.055Z,91.15
2017-03-16T05:03:08.391Z,91.17
2017-03-16T05:04:02.147Z,91.18
2017-03-16T05:05:02.101Z,91.21
2017-03-16T05:06:02.154Z,91.21
2017-03-16T05:06:57.170Z,91.21
2017-03-16T05:07:51.530Z,91.20
2017-03-16T05:08:51.187Z,91.19
2017-03-16T05:09:46.268Z,91.17
2017-03-16T05:10:41.242Z,91.17
2017-03-16T05:11:42.285Z,91.15
2017-03-16T05:12:42.362Z,91.16
2017-03-16T05:13:42.348Z,91.17
2017-03-16T05:14:37.418Z,91.17
2017-03-16T05:15:31.408Z,91.17
2017-03-16T05:16:31.457Z,91.17
2017-03-16T05:17:26.436Z,91.17
2017-03-16T05:18:26.506Z,91.16
2017-03-16T05:19:26.892Z,91.16
2017-03-16T05:20:32.569Z,91.19
2017-03-16T05:21:32.660Z,91.19
2017-03-16T05:22:33.614Z,91.20
2017-03-16T05:23:33.619Z,91.22
2017-03-16T05:24:33.671Z,91.22
2017-03-16T05:25:34.688Z,91.21
2017-03-16T05:26:28.665Z,91.24
2017-03-16T05:27:28.714Z,91.23
2017-03-16T05:28:23.817Z,91.27
2017-03-16T05:29:18.792Z,91.28
2017-03-16T05:30:18.758Z,91.29
2017-03-16T05:31:13.766Z,91.30
2017-03-16T05:32:13.870Z,91.34
2017-03-16T05:33:14.897Z,91.38
2017-03-16T05:34:15.886Z,91.37
2017-03-16T05:35:09.896Z,91.39
2017-03-16T05:36:10.936Z,91.37
2017-03-16T05:37:11.993Z,91.35
2017-03-16T05:38:11.984Z,91.39
2017-03-16T05:39:07.019Z,91.38
2017-03-16T05:40:07.028Z,91.38
2017-03-16T05:41:08.086Z,91.39
2017-03-16T05:42:02.080Z,91.40
2017-03-16T05:43:02.105Z,91.40
2017-03-16T05:43:57.534Z,91.44
2017-03-16T05:44:52.202Z,91.40
2017-03-16T05:45:46.220Z,91.45
2017-03-16T05:46:47.395Z,91.44
2017-03-16T05:47:48.298Z,91.46
2017-03-16T05:48:43.288Z,91.47
2017-03-16T05:49:43.285Z,91.47
2017-03-16T05:50:43.387Z,91.49
2017-03-16T05:51:43.382Z,91.49
2017-03-16T05:52:43.425Z,91.52
2017-03-16T05:53:43.418Z,91.52
2017-03-16T05:54:43.446Z,91.54
2017-03-16T05:55:43.464Z,91.54
2017-03-16T05:56:43.469Z,91.57
2017-03-16T05:57:43.535Z,91.57
2017-03-16T05:58:43.510Z,91.61
2017-03-16T05:59:43.543Z,91.62
2017-03-16T06:00:43.577Z,91.67
2017-03-16T06:01:43.619Z,91.64
2017-03-16T06:02:43.644Z,91.67
2017-03-16T06:03:43.701Z,91.64
2017-03-16T06:04:43.749Z,91.70
2017-03-16T06:05:43.673Z,91.71
2017-03-16T06:06:43.697Z,91.69
2017-03-16T06:07:37.746Z,91.70
2017-03-16T06:08:31.902Z,91.71
2017-03-16T06:09:32.229Z,91.71
2017-03-16T06:10:31.937Z,91.70
2017-03-16T06:11:31.805Z,91.69
2017-03-16T06:12:31.979Z,91.70
2017-03-16T06:13:32.900Z,91.69
2017-03-16T06:14:27.954Z,91.71
2017-03-16T06:15:21.977Z,91.72
2017-03-16T06:16:21.973Z,91.73
2017-03-16T06:17:16.982Z,91.70
2017-03-16T06:18:12.034Z,91.72
2017-03-16T06:19:12.121Z,91.71
2017-03-16T06:20:07.134Z,91.68
2017-03-16T06:21:02.335Z,91.62
2017-03-16T06:21:56.159Z,91.60
2017-03-16T06:22:56.193Z,91.57
2017-03-16T06:23:51.272Z,91.55
2017-03-16T06:24:51.266Z,91.52
2017-03-16T06:25:51.266Z,91.51
2017-03-16T06:26:51.269Z,91.49
2017-03-16T06:27:45.345Z,91.44
2017-03-16T06:28:45.380Z,91.37
2017-03-16T06:29:40.318Z,91.34
2017-03-16T06:30:35.383Z,91.27
2017-03-16T06:31:29.464Z,91.23
2017-03-16T06:32:30.468Z,91.16
2017-03-16T06:33:31.483Z,91.12
2017-03-16T06:34:26.546Z,91.08
2017-03-16T06:35:26.585Z,91.02
2017-03-16T06:36:32.566Z,90.97
2017-03-16T06:37:27.577Z,90.92
2017-03-16T06:38:21.651Z,90.93
2017-03-16T06:39:21.672Z,90.91
2017-03-16T06:40:16.705Z,90.93
2017-03-16T06:41:11.699Z,90.83
2017-03-16T06:42:11.718Z,90.70
2017-03-16T06:43:06.781Z,90.69
2017-03-16T06:44:01.859Z,90.60
2017-03-16T06:44:55.884Z,90.49
2017-03-16T06:45:43.888Z,90.40
2017-03-16T06:46:31.896Z,90.35
2017-03-16T06:47:20.928Z,90.32
2017-03-16T06:48:09.266Z,90.24
2017-03-16T06:48:58.070Z,90.16
2017-03-16T06:49:58.111Z,90.23
2017-03-16T06:50:47.081Z,90.17
2017-03-16T06:51:35.192Z,90.12
2017-03-16T06:52:23.177Z,90.02
2017-03-16T06:53:12.262Z,89.85
2017-03-16T06:54:00.239Z,89.67
2017-03-16T06:54:49.287Z,89.33
2017-03-16T06:55:37.470Z,88.92
2017-03-16T06:56:25.389Z,88.40
2017-03-16T06:57:19.434Z,87.73
2017-03-16T06:58:08.484Z,87.09
2017-03-16T06:59:02.516Z,86.17
2017-03-16T06:59:56.521Z,85.08
2017-03-16T07:00:45.601Z,83.90
2017-03-16T07:01:33.648Z,82.56
2017-03-16T07:02:27.642Z,80.78
2017-03-16T07:03:15.684Z,79.53
2017-03-16T07:04:03.692Z,78.40
2017-03-16T07:04:51.947Z,77.45
2017-03-16T07:05:45.738Z,77.66
2017-03-16T07:06:34.971Z,77.34
2017-03-16T07:07:22.908Z,76.58
2017-03-16T07:08:12.151Z,76.09
2017-03-16T07:08:59.966Z,75.32
2017-03-16T07:09:48.981Z,74.45
2017-03-16T07:10:37.060Z,73.70
2017-03-16T07:11:25.096Z,72.89
2017-03-16T07:12:26.106Z,71.72
2017-03-16T07:13:21.133Z,71.08
2017-03-16T07:14:15.160Z,70.59
2017-03-16T07:15:16.284Z,70.55
2017-03-16T07:16:10.273Z,70.68
2017-03-16T07:16:58.295Z,70.01
2017-03-16T07:17:52.339Z,69.01
2017-03-16T07:18:46.303Z,68.64
2017-03-16T07:19:47.367Z,68.76
2017-03-16T07:20:47.756Z,67.03
2017-03-16T07:21:36.450Z,65.59
2017-03-16T07:22:25.513Z,64.89
2017-03-16T07:23:20.545Z,65.81
2017-03-16T07:24:09.585Z,67.09
2017-03-16T07:25:03.598Z,68.18
2017-03-16T07:25:58.641Z,67.39
2017-03-16T07:26:46.662Z,65.93
2017-03-16T07:27:34.799Z,66.37
2017-03-16T07:28:23.804Z,66.06
2017-03-16T07:29:23.825Z,67.15
2017-03-16T07:30:23.857Z,66.95
2017-03-16T07:31:18.319Z,65.85
2017-03-16T07:32:05.907Z,65.66
2017-03-16T07:33:07.037Z,66.67
2017-03-16T07:33:56.012Z,66.55
2017-03-16T07:34:50.477Z,66.52
2017-03-16T07:35:38.091Z,66.23
2017-03-16T07:36:27.154Z,65.48
2017-03-16T07:37:28.197Z,65.74
2017-03-16T07:38:28.214Z,66.51
2017-03-16T07:39:23.619Z,65.22
2017-03-16T07:40:23.288Z,64.81
2017-03-16T07:41:18.739Z,62.57
2017-03-16T07:42:12.380Z,63.53
2017-03-16T07:43:12.414Z,62.14
2017-03-16T07:44:12.504Z,61.10
2017-03-16T07:45:12.477Z,60.58
2017-03-16T07:46:12.469Z,60.61
2017-03-16T07:47:12.568Z,61.67
2017-03-16T07:48:01.600Z,61.75
2017-03-16T07:48:55.662Z,60.75
2017-03-16T07:49:55.633Z,60.54
2017-03-16T07:50:44.699Z,60.59
2017-03-16T07:51:33.776Z,59.55
2017-03-16T07:52:23.185Z,59.19
2017-03-16T07:53:10.854Z,59.33
2017-03-16T07:54:10.896Z,60.29
2017-03-16T07:55:05.930Z,60.23
2017-03-16T07:56:05.998Z,61.16
2017-03-16T07:56:54.977Z,61.12
2017-03-16T07:57:43.083Z,61.68
2017-03-16T07:58:31.105Z,62.52
2017-03-16T07:59:26.492Z,63.74
2017-03-16T08:00:21.238Z,62.68
2017-03-16T08:01:15.265Z,61.29
2017-03-16T08:02:03.309Z,60.80
2017-03-16T08:02:51.381Z,60.09
2017-03-16T08:03:45.386Z,60.62
2017-03-16T08:04:45.392Z,60.05
2017-03-16T08:05:40.476Z,59.86
2017-03-16T08:06:34.521Z,58.91
2017-03-16T08:07:40.509Z,59.52
2017-03-16T08:08:28.594Z,58.70
2017-03-16T08:09:23.990Z,58.94
2017-03-16T08:10:12.703Z,59.00
2017-03-16T08:11:01.701Z,57.39
2017-03-16T08:11:56.010Z,57.22
2017-03-16T08:12:49.769Z,60.39
2017-03-16T08:13:44.871Z,59.61
2017-03-16T08:14:32.900Z,60.06
2017-03-16T08:15:20.935Z,58.03
2017-03-16T08:16:22.107Z,56.38
2017-03-16T08:17:16.000Z,57.03
2017-03-16T08:18:04.081Z,57.82
2017-03-16T08:18:58.364Z,57.64
2017-03-16T08:19:46.173Z,57.47
2017-03-16T08:20:46.218Z,58.78
2017-03-16T08:21:40.269Z,58.76
2017-03-16T08:22:46.309Z,60.18
2017-03-16T08:23:40.302Z,60.93
2017-03-16T08:24:28.335Z,58.77
2017-03-16T08:25:22.411Z,57.74
2017-03-16T08:26:16.513Z,56.49
2017-03-16T08:27:05.501Z,55.39
2017-03-16T08:27:53.534Z,54.23
2017-03-16T08:28:47.565Z,53.53
2017-03-16T08:29:48.620Z,52.70
2017-03-16T08:30:42.718Z,53.63
2017-03-16T08:31:42.725Z,53.15
2017-03-16T08:32:37.965Z,51.46
2017-03-16T08:33:32.764Z,52.40
2017-03-16T08:34:26.881Z,53.03
2017-03-16T08:35:26.911Z,53.96
2017-03-16T08:36:21.974Z,55.01
2017-03-16T08:37:15.983Z,55.70
2017-03-16T08:38:16.067Z,55.79
2017-03-16T08:39:10.135Z,57.69
2017-03-16T08:40:11.101Z,56.35
2017-03-16T08:41:00.763Z,56.32
2017-03-16T08:41:49.230Z,55.56
2017-03-16T08:42:38.272Z,55.82
2017-03-16T08:43:27.321Z,55.59
2017-03-16T08:44:27.361Z,53.76
2017-03-16T08:45:21.390Z,52.38
2017-03-16T08:46:21.452Z,53.05
2017-03-16T08:47:21.482Z,51.22
2017-03-16T08:48:21.549Z,51.37
2017-03-16T08:49:15.578Z,51.29
2017-03-16T08:50:15.602Z,52.07
2017-03-16T08:51:04.619Z,54.37
2017-03-16T08:51:53.728Z,56.01
2017-03-16T08:52:48.780Z,53.86
2017-03-16T08:53:37.807Z,52.77
2017-03-16T08:54:37.896Z,53.18
2017-03-16T08:55:33.254Z,52.80
2017-03-16T08:56:33.290Z,51.11
2017-03-16T08:57:33.386Z,49.64
2017-03-16T08:58:28.064Z,50.97
2017-03-16T08:59:28.080Z,52.20
2017-03-16T09:00:22.093Z,51.19
2017-03-16T09:01:16.169Z,50.38
2017-03-16T09:02:16.182Z,50.26
2017-03-16T09:03:16.263Z,51.72
2017-03-16T09:04:10.308Z,52.05
2017-03-16T09:05:04.732Z,49.85
2017-03-16T09:05:59.401Z,49.23
2017-03-16T09:06:47.491Z,49.94
2017-03-16T09:07:47.477Z,49.93
2017-03-16T09:08:42.546Z,51.96
2017-03-16T09:09:36.756Z,52.00
2017-03-16T09:10:24.665Z,54.05
2017-03-16T09:11:25.690Z,53.06
2017-03-16T09:12:14.768Z,51.97
2017-03-16T09:13:03.798Z,52.34
2017-03-16T09:13:52.854Z,52.75
2017-03-16T09:14:41.894Z,52.93
2017-03-16T09:15:36.917Z,52.80
2017-03-16T09:16:31.028Z,52.10
2017-03-16T09:17:31.024Z,51.79
2017-03-16T09:18:26.112Z,48.37
2017-03-16T09:19:20.172Z,47.69
2017-03-16T09:20:15.213Z,47.38
2017-03-16T09:21:10.174Z,47.26
2017-03-16T09:21:58.282Z,45.81
2017-03-16T09:22:58.333Z,45.09
2017-03-16T09:23:52.379Z,47.48
2017-03-16T09:24:52.444Z,46.76
2017-03-16T09:25:46.458Z,46.45
2017-03-16T09:26:41.484Z,47.34
2017-03-16T09:27:41.505Z,47.48
2017-03-16T09:28:35.588Z,48.40
2017-03-16T09:29:35.656Z,46.41
2017-03-16T09:30:29.708Z,49.27
2017-03-16T09:31:17.765Z,48.98
2017-03-16T09:32:11.854Z,50.28
2017-03-16T09:33:05.889Z,50.83
2017-03-16T09:33:59.900Z,51.03
2017-03-16T09:34:59.936Z,51.54
2017-03-16T09:35:54.006Z,52.30
2017-03-16T09:36:43.075Z,51.91
2017-03-16T09:37:43.098Z,52.92
2017-03-16T09:38:37.173Z,53.85
2017-03-16T09:39:31.207Z,53.43
2017-03-16T09:40:25.251Z,52.93
2017-03-16T09:41:20.306Z,54.57
2017-03-16T09:42:20.354Z,53.26
2017-03-16T09:43:15.358Z,54.52
2017-03-16T09:44:03.444Z,53.46
2017-03-16T09:45:03.512Z,52.55
2017-03-16T09:45:57.505Z,50.82
2017-03-16T09:46:57.592Z,52.62
2017-03-16T09:47:52.644Z,51.19
2017-03-16T09:48:46.672Z,49.04
2017-03-16T09:49:42.128Z,49.74
2017-03-16T09:50:35.805Z,49.75
2017-03-16T09:51:29.878Z,52.55
2017-03-16T09:52:29.906Z,50.06
2017-03-16T09:53:18.865Z,49.00
2017-03-16T09:54:07.987Z,46.76
2017-03-16T09:55:03.028Z,48.09
2017-03-16T09:55:52.116Z,47.63
2017-03-16T09:56:46.286Z,48.09
2017-03-16T09:57:40.184Z,46.65
2017-03-16T09:58:34.197Z,49.54
2017-03-16T09:59:28.259Z,47.69
2017-03-16T10:00:22.353Z,50.01
2017-03-16T10:01:11.387Z,49.16
2017-03-16T10:02:05.398Z,48.65
2017-03-16T10:02:59.458Z,46.36
2017-03-16T10:03:48.911Z,49.10
2017-03-16T10:04:42.571Z,47.28
2017-03-16T10:05:37.595Z,47.62
2017-03-16T10:06:31.678Z,45.89
2017-03-16T10:07:31.732Z,46.98
2017-03-16T10:08:20.727Z,46.21
2017-03-16T10:09:16.157Z,46.41
2017-03-16T10:10:09.873Z,45.43
2017-03-16T10:10:58.917Z,47.07
2017-03-16T10:11:52.950Z,49.40
2017-03-16T10:12:48.546Z,48.23
2017-03-16T10:13:37.121Z,47.11
2017-03-16T10:14:26.127Z,45.86
2017-03-16T10:15:26.186Z,47.33
2017-03-16T10:16:26.170Z,45.92
2017-03-16T10:17:26.275Z,45.69
2017-03-16T10:18:26.302Z,46.41
2017-03-16T10:19:21.304Z,46.94
2017-03-16T10:20:15.394Z,48.24
2017-03-16T10:21:09.439Z,46.12
2017-03-16T10:21:58.454Z,43.01
2017-03-16T10:22:58.492Z,45.01
2017-03-16T10:23:52.771Z,43.25
2017-03-16T10:24:46.639Z,46.14
2017-03-16T10:25:40.676Z,46.76
2017-03-16T10:26:29.733Z,43.28
2017-03-16T10:27:24.822Z,42.99
2017-03-16T10:28:18.889Z,43.66
2017-03-16T10:29:12.864Z,45.07
2017-03-16T10:30:12.938Z,46.14
2017-03-16T10:31:08.003Z,47.03
2017-03-16T10:32:02.056Z,47.96
2017-03-16T10:32:50.175Z,43.88
2017-03-16T10:33:44.089Z,44.12
2017-03-16T10:34:33.163Z,44.73
2017-03-16T10:35:28.232Z,45.36
2017-03-16T10:36:17.251Z,44.41
2017-03-16T10:37:12.319Z,45.03
2017-03-16T10:38:07.417Z,45.88
2017-03-16T10:38:55.349Z,44.57
2017-03-16T10:39:49.431Z,41.53
2017-03-16T10:40:43.568Z,43.39
2017-03-16T10:41:37.583Z,43.02
2017-03-16T10:42:37.593Z,42.43
2017-03-16T10:43:32.686Z,42.69
2017-03-16T10:44:26.973Z,43.72
2017-03-16T10:45:21.786Z,44.08
2017-03-16T10:46:09.788Z,39.64
2017-03-16T10:46:58.834Z,42.03
2017-03-16T10:47:47.900Z,42.09
2017-03-16T10:48:41.960Z,41.63
2017-03-16T10:49:36.008Z,40.83
2017-03-16T10:50:25.473Z,42.63
2017-03-16T10:51:14.174Z,41.02
2017-03-16T10:52:03.192Z,41.90
2017-03-16T10:53:03.222Z,43.76
2017-03-16T10:53:58.492Z,42.79
2017-03-16T10:54:52.310Z,43.28
2017-03-16T10:55:46.374Z,44.58
2017-03-16T10:56:35.425Z,41.71
2017-03-16T10:57:24.489Z,43.24
2017-03-16T10:58:19.543Z,43.16
2017-03-16T10:59:08.558Z,45.82
2017-03-16T10:59:56.943Z,43.11
2017-03-16T11:00:45.699Z,40.22
2017-03-16T11:01:39.751Z,41.16
2017-03-16T11:02:29.145Z,42.29
2017-03-16T11:03:16.853Z,42.29
2017-03-16T11:04:05.825Z,43.50
2017-03-16T11:05:10.986Z,43.20
2017-03-16T11:06:05.988Z,42.67
2017-03-16T11:07:01.356Z,42.90
2017-03-16T11:07:50.075Z,42.88
2017-03-16T11:08:44.119Z,39.55
2017-03-16T11:09:39.190Z,37.13
2017-03-16T11:10:33.193Z,39.91
2017-03-16T11:11:21.279Z,39.05
2017-03-16T11:12:21.336Z,41.27
2017-03-16T11:13:09.386Z,40.32
2017-03-16T11:14:04.381Z,40.47
2017-03-16T11:15:04.432Z,41.27
2017-03-16T11:15:58.486Z,40.15
2017-03-16T11:16:52.637Z,44.23
2017-03-16T11:17:41.668Z,44.03
2017-03-16T11:18:35.661Z,42.80
2017-03-16T11:19:31.130Z,40.04
2017-03-16T11:20:24.787Z,39.97
2017-03-16T11:21:19.856Z,43.86
2017-03-16T11:22:08.890Z,42.40
2017-03-16T11:23:09.884Z,43.89
2017-03-16T11:24:04.991Z,47.09
2017-03-16T11:24:54.024Z,40.74
2017-03-16T11:25:48.061Z,39.31
2017-03-16T11:26:37.162Z,40.13
2017-03-16T11:27:31.185Z,40.59
2017-03-16T11:28:26.258Z,39.81
2017-03-16T11:29:15.262Z,41.49
2017-03-16T11:30:04.582Z,41.20
2017-03-16T11:30:58.366Z,39.19
2017-03-16T11:31:58.398Z,40.52
2017-03-16T11:32:53.459Z,41.28
2017-03-16T11:33:42.530Z,39.46
2017-03-16T11:34:37.934Z,41.68
2017-03-16T11:35:31.591Z,41.33
2017-03-16T11:36:25.670Z,40.65
2017-03-16T11:37:13.708Z,39.67
2017-03-16T11:38:13.775Z,38.71
2017-03-16T11:39:09.410Z,42.94
2017-03-16T11:39:57.877Z,38.36
2017-03-16T11:40:57.951Z,41.39
2017-03-16T11:41:45.904Z,39.01
2017-03-16T11:42:41.131Z,39.99
2017-03-16T11:43:30.075Z,39.86
2017-03-16T11:44:24.154Z,40.25
2017-03-16T11:45:13.217Z,40.19
2017-03-16T11:46:02.270Z,41.44
2017-03-16T11:46:56.284Z,40.66
2017-03-16T11:47:56.351Z,38.75
2017-03-16T11:48:50.393Z,42.17
2017-03-16T11:49:45.460Z,41.81
2017-03-16T11:50:39.498Z,42.38
2017-03-16T11:51:33.564Z,44.20
2017-03-16T11:52:33.606Z,40.97
2017-03-16T11:53:28.644Z,39.80
2017-03-16T11:54:22.666Z,38.71
2017-03-16T11:55:17.793Z,38.80
2017-03-16T11:56:12.183Z,38.03
2017-03-16T11:57:05.904Z,39.46
2017-03-16T11:57:59.988Z,39.19
2017-03-16T11:58:47.916Z,41.56
2017-03-16T11:59:48.012Z,39.98